EmailTwitter


Surface observations / United Kingdom / EGTE (03839)

Regions: Quebec | Canada | USA | Europe | France | UK | Elsewhere
Station
Display
Info & Location for EGTE (03839) | Help decoding METAR

Weather Conditions observed on 2018/04/27 at 06:50 UTC at EXETER AIRPORT, UK (EGTE)

Sky conditions: variable clouds.

Obstruction(s) to Vision: light rain.

Temperature: 7.0 Celsius.

Dewpoint: 6.0 Celsius.

Relative Humidity: 93%

Windchill Factor: 5.

Winds: East at 13 km/h or 7 knots.

Mean Sea level Pressure: 100.50 kilopascals.

Horizontal visibility: 6.21 statute miles or 9.94 kilometers.

Coded METAR:

EGTE 270650Z 08007KT 9999 -RA FEW012 SCT020 07/06 Q1005=